createdAt,value
2022-09-13T00:00:44.215Z,100199.41
2022-09-13T00:03:13.495Z,100195.94
2022-09-13T00:05:42.486Z,100204.66
2022-09-13T00:08:10.483Z,100201.88
2022-09-13T00:10:39.134Z,100185.59
2022-09-13T00:13:06.843Z,100206.16
2022-09-13T00:15:41.213Z,100204.41
2022-09-13T00:18:08.004Z,100172.78
2022-09-13T00:20:35.075Z,100113.66
2022-09-13T00:23:01.750Z,100168.28
2022-09-13T00:25:28.433Z,100151.78
2022-09-13T00:27:55.162Z,100033.06
2022-09-13T00:30:21.831Z,100204.47
2022-09-13T00:36:06.585Z,100196.63
2022-09-13T00:38:36.269Z,100076.38
2022-09-13T00:41:05.116Z,100164.88
2022-09-13T00:43:47.800Z,99971.03
2022-09-13T00:46:44.504Z,99703.81
2022-09-13T00:49:19.190Z,100193.91
2022-09-13T00:51:57.423Z,100104.06
2022-09-13T00:54:27.339Z,100194.78
2022-09-13T00:56:56.026Z,100138.56
2022-09-13T00:59:36.271Z,100139.34
2022-09-13T01:02:04.607Z,100133.09
2022-09-13T01:04:33.132Z,100202.47
2022-09-13T01:07:04.221Z,100043.50
2022-09-13T01:09:33.222Z,100114.38
2022-09-13T01:12:05.148Z,100072.16
2022-09-13T01:14:32.756Z,100198.69
2022-09-13T01:16:59.503Z,100232.63
2022-09-13T01:19:26.477Z,100206.44
2022-09-13T01:22:29.060Z,100113.28
2022-09-13T01:25:01.547Z,100191.47
2022-09-13T01:27:46.547Z,100193.00
2022-09-13T01:30:19.329Z,100194.59
2022-09-13T01:33:04.166Z,100194.47
2022-09-13T01:35:46.155Z,100185.69
2022-09-13T01:38:31.237Z,100109.13
2022-09-13T01:41:25.086Z,99960.69
2022-09-13T01:44:15.967Z,100195.88
2022-09-13T01:47:20.481Z,100188.78
2022-09-13T01:49:47.116Z,100185.31
2022-09-13T01:52:34.372Z,100095.63
2022-09-13T01:55:13.767Z,100077.06
2022-09-13T01:57:40.359Z,100082.34
2022-09-13T02:00:10.925Z,100184.19
2022-09-13T02:02:51.443Z,100182.41
2022-09-13T02:05:23.264Z,100185.81
2022-09-13T02:07:58.281Z,100025.63
2022-09-13T02:10:39.046Z,100173.53
2022-09-13T02:13:08.605Z,100125.88
2022-09-13T02:15:40.134Z,100006.88
2022-09-13T02:18:16.012Z,100062.19
2022-09-13T02:20:45.023Z,100013.28
2022-09-13T02:23:22.420Z,100023.31
2022-09-13T02:25:49.764Z,100030.47
2022-09-13T02:28:21.462Z,99986.72
2022-09-13T02:30:51.722Z,100180.81
2022-09-13T02:33:29.420Z,100034.72
2022-09-13T02:36:07.157Z,100140.28
2022-09-13T02:38:37.675Z,100158.59
2022-09-13T02:41:15.050Z,100124.03
2022-09-13T02:43:45.399Z,100062.38
2022-09-13T02:46:18.567Z,100086.19
2022-09-13T02:49:04.780Z,100065.22
2022-09-13T02:51:56.537Z,100174.97
2022-09-13T02:54:32.222Z,100174.97
2022-09-13T02:57:06.254Z,100009.72
2022-09-13T02:59:35.277Z,99992.03
2022-09-13T03:02:17.126Z,100176.41
2022-09-13T03:04:46.934Z,100007.69
2022-09-13T03:07:14.675Z,100001.69
2022-09-13T03:09:48.628Z,99898.94
2022-09-13T03:12:55.946Z,100157.31
2022-09-13T03:15:42.265Z,99973.66
2022-09-13T03:18:34.916Z,100159.91
2022-09-13T03:21:18.644Z,100130.00
2022-09-13T03:24:10.794Z,100158.13
2022-09-13T03:26:46.626Z,100152.91
2022-09-13T03:29:33.622Z,100000.75
2022-09-13T03:32:21.385Z,100170.28
2022-09-13T03:35:09.464Z,100153.72
2022-09-13T03:37:51.373Z,100150.31
2022-09-13T03:40:26.206Z,100016.66
2022-09-13T03:43:03.548Z,100142.41
2022-09-13T03:45:34.141Z,99990.28
2022-09-13T03:48:04.282Z,99946.25
2022-09-13T03:50:33.756Z,99930.50
2022-09-13T03:53:07.407Z,99925.94
2022-09-13T03:55:35.138Z,99956.34
2022-09-13T03:58:04.535Z,100142.06
2022-09-13T04:00:31.037Z,100136.09
2022-09-13T04:03:00.175Z,99971.81
2022-09-13T04:05:29.035Z,99909.34
2022-09-13T04:07:56.150Z,100022.56
2022-09-13T04:10:24.279Z,99891.78
2022-09-13T04:12:52.023Z,99946.25
2022-09-13T04:15:18.699Z,100102.53
2022-09-13T04:17:45.431Z,100028.00
2022-09-13T04:20:14.705Z,99908.56
2022-09-13T04:22:42.200Z,99854.97
2022-09-13T04:25:09.366Z,100021.56
2022-09-13T04:27:41.137Z,99778.44
2022-09-13T04:30:10.050Z,100138.28
2022-09-13T04:32:41.547Z,100136.56
2022-09-13T04:35:09.262Z,100059.50
2022-09-13T04:37:39.166Z,99903.03
2022-09-13T04:40:09.565Z,100131.44
2022-09-13T04:42:36.358Z,100151.47
2022-09-13T04:45:06.518Z,99968.97
2022-09-13T04:47:33.214Z,100004.38
2022-09-13T04:49:59.874Z,99953.38
2022-09-13T04:52:26.600Z,100065.00
2022-09-13T04:54:53.348Z,100072.75
2022-09-13T04:57:22.857Z,100149.28
2022-09-13T04:59:49.507Z,100010.31
2022-09-13T05:02:21.461Z,100019.19
2022-09-13T05:04:50.529Z,99916.56
2022-09-13T05:07:17.605Z,99976.13
2022-09-13T05:09:44.245Z,99993.84
2022-09-13T05:12:13.281Z,99949.13
2022-09-13T05:14:40.247Z,100015.56
2022-09-13T05:17:09.682Z,100006.28
2022-09-13T05:19:36.244Z,100155.66
2022-09-13T05:22:03.305Z,99933.53
2022-09-13T05:24:30.002Z,100085.19
2022-09-13T05:26:56.700Z,100098.47
2022-09-13T05:29:23.381Z,100116.03
2022-09-13T05:31:52.715Z,100100.41
2022-09-13T05:34:21.634Z,100165.59
2022-09-13T05:36:54.164Z,100001.50
2022-09-13T05:39:39.448Z,100026.13
2022-09-13T05:42:09.036Z,100049.84
2022-09-13T05:44:35.675Z,99899.00
2022-09-13T05:47:02.430Z,100162.47
2022-09-13T05:49:31.473Z,100058.81
2022-09-13T05:52:00.724Z,100159.13
2022-09-13T05:54:29.640Z,100094.28
2022-09-13T05:57:01.162Z,99942.44
2022-09-13T05:59:32.304Z,99994.13
2022-09-13T06:01:59.404Z,100013.50
2022-09-13T06:04:28.288Z,100162.78
2022-09-13T06:06:55.103Z,100166.31
2022-09-13T06:09:21.797Z,100054.13
2022-09-13T06:11:48.498Z,100032.03
2022-09-13T06:14:15.174Z,100120.09
2022-09-13T06:16:41.837Z,100165.03
2022-09-13T06:19:08.928Z,100114.16
2022-09-13T06:21:38.109Z,99834.34
2022-09-13T06:24:07.232Z,100172.91
2022-09-13T06:26:36.363Z,100078.81
2022-09-13T06:29:03.128Z,100042.97
2022-09-13T06:31:34.686Z,99796.84
2022-09-13T06:34:04.777Z,100193.44
2022-09-13T06:36:33.981Z,100056.81
2022-09-13T06:39:06.557Z,100153.59
2022-09-13T06:41:38.305Z,99960.63
2022-09-13T06:44:05.444Z,100136.28
2022-09-13T06:46:34.511Z,99988.94
2022-09-13T06:49:06.498Z,100063.59
2022-09-13T06:51:34.500Z,100170.03
2022-09-13T06:54:03.899Z,100126.34
2022-09-13T06:56:35.331Z,100022.00
2022-09-13T06:59:07.488Z,100102.19
2022-09-13T07:01:35.450Z,100168.00
2022-09-13T07:04:03.401Z,100070.75
2022-09-13T07:06:36.665Z,99889.94
2022-09-13T07:09:10.073Z,99985.69
2022-09-13T07:11:38.525Z,100178.72
2022-09-13T07:14:09.431Z,100173.63
2022-09-13T07:16:37.744Z,100167.72
2022-09-13T07:19:12.024Z,100173.06
2022-09-13T07:21:41.171Z,100077.38
2022-09-13T07:24:12.712Z,100141.63
2022-09-13T07:26:39.866Z,100008.38
2022-09-13T07:29:09.127Z,99983.16
2022-09-13T07:31:37.672Z,100164.84
2022-09-13T07:34:09.583Z,100047.47
2022-09-13T07:36:36.748Z,100110.69
2022-09-13T07:39:04.675Z,100172.91
2022-09-13T07:41:32.474Z,100141.44
2022-09-13T07:44:04.756Z,100168.63
2022-09-13T07:46:32.849Z,100162.69
2022-09-13T07:49:01.098Z,99999.84
2022-09-13T07:51:32.816Z,100137.47
2022-09-13T07:54:01.851Z,100070.09
2022-09-13T07:56:32.776Z,100169.06
2022-09-13T07:59:01.097Z,100170.88
2022-09-13T08:01:28.711Z,100163.03
2022-09-13T08:03:57.325Z,100155.22
2022-09-13T08:06:28.090Z,100051.97
2022-09-13T08:08:55.267Z,100160.53
2022-09-13T08:11:33.259Z,100157.91
2022-09-13T08:14:05.878Z,100066.88
2022-09-13T08:16:33.497Z,100123.78
2022-09-13T08:19:03.832Z,100125.56
2022-09-13T08:21:40.746Z,100162.34
2022-09-13T08:24:17.467Z,100161.47
2022-09-13T08:26:44.860Z,100165.84
2022-09-13T08:29:17.443Z,100095.84
2022-09-13T08:31:44.386Z,100012.78
2022-09-13T08:34:12.970Z,100080.97
2022-09-13T08:36:42.462Z,100164.06
2022-09-13T08:39:10.071Z,99974.31
2022-09-13T08:41:47.905Z,100147.41
2022-09-13T08:44:31.134Z,100152.66
2022-09-13T08:47:19.682Z,100149.16
2022-09-13T08:49:54.413Z,100149.09
2022-09-13T08:52:28.850Z,100150.84
2022-09-13T08:55:00.363Z,100011.00
2022-09-13T08:57:53.684Z,100048.56
2022-09-13T09:00:38.550Z,100152.63
2022-09-13T09:03:17.967Z,100118.47
2022-09-13T09:05:47.966Z,100104.44
2022-09-13T09:08:31.337Z,100151.66
2022-09-13T09:11:04.029Z,100164.84
2022-09-13T09:13:51.151Z,100149.06
2022-09-13T09:16:36.237Z,100148.22
2022-09-13T09:19:27.439Z,100059.00
2022-09-13T09:21:54.150Z,100139.31
2022-09-13T09:24:25.367Z,100069.41
2022-09-13T09:26:57.729Z,99936.53
2022-09-13T09:29:28.939Z,100045.53
2022-09-13T09:32:33.355Z,100118.72
2022-09-13T09:35:17.850Z,100004.97
2022-09-13T09:37:47.996Z,100116.66
2022-09-13T09:40:17.258Z,99984.66
2022-09-13T09:42:48.176Z,99982.00
2022-09-13T09:45:33.912Z,100105.69
2022-09-13T09:48:07.503Z,99930.19
2022-09-13T09:50:50.206Z,100100.16
2022-09-13T09:53:30.010Z,100096.44
2022-09-13T09:56:15.290Z,100013.56
2022-09-13T09:58:43.675Z,100079.53
2022-09-13T10:01:16.602Z,100073.03
2022-09-13T10:03:50.819Z,99902.72
2022-09-13T10:06:25.676Z,100057.56
2022-09-13T10:09:03.149Z,100082.94
2022-09-13T10:12:01.544Z,100075.19
2022-09-13T10:14:46.205Z,100062.53
2022-09-13T10:17:21.766Z,99915.91
2022-09-13T10:19:54.226Z,99924.03
2022-09-13T10:22:23.603Z,100047.91
2022-09-13T10:24:50.772Z,100017.94
2022-09-13T10:27:23.474Z,100060.97
2022-09-13T10:29:52.757Z,99958.53
2022-09-13T10:32:19.851Z,100033.63
2022-09-13T10:34:47.005Z,99906.31
2022-09-13T10:37:24.444Z,100037.47
2022-09-13T10:40:38.670Z,99909.00
2022-09-13T10:43:16.122Z,99983.59
2022-09-13T10:45:43.012Z,100014.97
2022-09-13T10:48:13.487Z,100027.84
2022-09-13T10:51:17.807Z,100012.00
2022-09-13T10:53:44.556Z,99846.94
2022-09-13T10:56:23.512Z,99941.28
2022-09-13T10:58:50.112Z,100033.91
2022-09-13T11:01:33.412Z,100034.91
2022-09-13T11:04:44.222Z,100021.53
2022-09-13T11:07:20.746Z,100025.16
2022-09-13T11:09:52.696Z,100017.75
2022-09-13T11:12:31.443Z,100020.22
2022-09-13T11:15:37.108Z,100029.91
2022-09-13T11:18:14.165Z,100021.50
2022-09-13T11:21:04.507Z,99972.69
2022-09-13T11:23:49.883Z,100014.97
2022-09-13T11:26:46.737Z,99940.59
2022-09-13T11:29:26.207Z,99916.66
2022-09-13T11:32:18.515Z,100006.66
2022-09-13T11:35:06.392Z,100013.81
2022-09-13T11:37:33.028Z,100014.31
2022-09-13T11:40:16.424Z,99994.03
2022-09-13T11:42:58.831Z,99794.06
2022-09-13T11:45:38.506Z,99749.44
2022-09-13T11:48:30.608Z,99977.44
2022-09-13T11:51:21.739Z,99975.56
2022-09-13T11:54:12.846Z,99983.38
2022-09-13T11:56:43.246Z,99932.44
2022-09-13T11:59:40.065Z,99900.88
2022-09-13T12:02:34.527Z,99981.63
2022-09-13T12:05:22.543Z,99898.88
2022-09-13T12:07:54.194Z,99980.31
2022-09-13T12:10:47.280Z,99985.19
2022-09-13T12:13:22.832Z,99844.13
2022-09-13T12:15:53.215Z,99819.63
2022-09-13T12:18:26.153Z,99968.25
2022-09-13T12:20:56.200Z,99946.63
2022-09-13T12:23:29.291Z,99966.72
2022-09-13T12:26:18.430Z,99931.34
2022-09-13T12:28:49.734Z,99851.63
2022-09-13T12:31:21.752Z,99954.59
2022-09-13T12:33:49.161Z,99948.25
2022-09-13T12:36:22.011Z,99953.41
2022-09-13T12:39:19.570Z,99946.94
2022-09-13T12:42:10.557Z,99946.50
2022-09-13T12:45:17.887Z,99948.09
2022-09-13T12:47:56.458Z,99943.28
2022-09-13T12:50:51.384Z,99944.41
2022-09-13T12:53:33.091Z,99965.69
2022-09-13T12:56:24.262Z,99959.44
2022-09-13T12:59:30.408Z,99944.00
2022-09-13T13:01:58.419Z,99850.56
2022-09-13T13:04:33.493Z,99749.38
2022-09-13T13:07:03.889Z,99962.44
2022-09-13T13:09:36.874Z,99942.34
2022-09-13T13:12:06.449Z,99827.22
2022-09-13T13:14:41.475Z,99933.50
2022-09-13T13:17:38.159Z,99935.56
2022-09-13T13:20:42.479Z,99918.97
2022-09-13T13:23:24.166Z,99923.16
2022-09-13T13:26:46.145Z,99920.81
2022-09-13T13:29:17.977Z,99903.97
2022-09-13T13:31:53.310Z,99920.53
2022-09-13T13:34:22.961Z,99924.38
2022-09-13T13:37:22.776Z,99845.44
2022-09-13T13:40:10.233Z,99839.88
2022-09-13T13:42:39.985Z,99916.94
2022-09-13T13:45:20.865Z,99890.53
2022-09-13T13:48:24.943Z,99913.63
2022-09-13T13:51:26.114Z,99918.13
2022-09-13T13:54:05.860Z,99552.41
2022-09-13T13:56:47.135Z,99901.13
2022-09-13T13:59:31.057Z,99911.50
2022-09-13T14:02:01.995Z,99911.31
2022-09-13T14:04:37.960Z,99901.56
2022-09-13T14:07:36.804Z,99887.41
2022-09-13T14:10:12.318Z,99895.63
2022-09-13T14:13:07.835Z,99772.69
2022-09-13T14:15:37.462Z,99896.22
2022-09-13T14:18:07.146Z,99902.75
2022-09-13T14:20:36.142Z,99866.06
2022-09-13T14:23:19.715Z,99832.88
2022-09-13T14:25:54.877Z,99888.69
2022-09-13T14:28:22.570Z,99887.75
2022-09-13T14:30:53.779Z,99800.81
2022-09-13T14:33:32.450Z,99857.91
2022-09-13T14:36:27.943Z,99879.53
2022-09-13T14:38:58.772Z,99855.28
2022-09-13T14:41:37.633Z,99871.88
2022-09-13T14:44:28.784Z,99672.72
2022-09-13T14:47:15.067Z,99826.09
2022-09-13T14:49:48.908Z,99862.63
2022-09-13T14:52:39.516Z,99864.84
2022-09-13T14:55:09.887Z,99877.50
2022-09-13T14:57:41.953Z,99723.59
2022-09-13T15:00:14.752Z,99859.56
2022-09-13T15:02:46.898Z,99606.34
2022-09-13T15:05:15.634Z,99878.16
2022-09-13T15:07:44.852Z,99863.03
2022-09-13T15:10:17.659Z,99848.59
2022-09-13T15:13:10.861Z,99818.25
2022-09-13T15:15:48.044Z,99714.09
2022-09-13T15:18:17.811Z,99843.03
2022-09-13T15:20:53.720Z,99837.88
2022-09-13T15:23:43.563Z,99829.50
2022-09-13T15:26:23.489Z,99841.78
2022-09-13T15:28:51.519Z,99811.28
2022-09-13T15:31:22.636Z,99822.31
2022-09-13T15:33:49.908Z,99814.66
2022-09-13T15:36:19.651Z,99830.84
2022-09-13T15:39:01.207Z,99834.44
2022-09-13T15:41:34.756Z,99844.94
2022-09-13T15:44:05.227Z,99842.25
2022-09-13T15:46:55.489Z,99839.28
2022-09-13T15:49:26.560Z,99840.34
2022-09-13T15:52:12.599Z,99625.66
2022-09-13T15:54:41.882Z,99708.91
2022-09-13T15:57:24.046Z,99666.81
2022-09-13T15:59:50.942Z,99809.59
2022-09-13T16:02:23.859Z,99830.81
2022-09-13T16:04:50.629Z,99785.25
2022-09-13T16:07:18.431Z,99817.97
2022-09-13T16:09:45.837Z,99689.69
2022-09-13T16:12:18.878Z,99520.50
2022-09-13T16:14:50.364Z,99625.75
2022-09-13T16:17:27.028Z,99812.38
2022-09-13T16:19:55.950Z,99521.44
2022-09-13T16:22:25.336Z,99807.16
2022-09-13T16:24:54.292Z,99729.63
2022-09-13T16:27:21.137Z,99700.38
2022-09-13T16:29:48.262Z,99773.31
2022-09-13T16:32:15.601Z,99566.97
2022-09-13T16:34:42.280Z,99795.16
2022-09-13T16:37:14.022Z,99651.91
2022-09-13T16:39:40.788Z,99649.66
2022-09-13T16:42:09.727Z,99761.78
2022-09-13T16:44:36.334Z,99805.31
2022-09-13T16:47:05.249Z,99809.34
2022-09-13T16:49:32.053Z,99804.28
2022-09-13T16:52:02.070Z,99798.63
2022-09-13T16:54:31.129Z,99567.75
2022-09-13T16:56:58.757Z,99714.75
2022-09-13T16:59:25.892Z,99640.06
2022-09-13T17:01:52.912Z,99676.31
2022-09-13T17:04:27.181Z,99645.63
2022-09-13T17:06:53.916Z,99808.47
2022-09-13T17:09:22.450Z,99758.28
2022-09-13T17:11:53.856Z,99689.75
2022-09-13T17:14:22.792Z,99714.31
2022-09-13T17:16:53.693Z,99814.28
2022-09-13T17:19:34.130Z,99632.47
2022-09-13T17:22:02.685Z,99607.06
2022-09-13T17:24:31.935Z,99772.03
2022-09-13T17:26:59.103Z,99687.91
2022-09-13T17:29:31.012Z,99634.25
2022-09-13T17:31:59.043Z,99807.81
2022-09-13T17:34:28.400Z,99714.97
2022-09-13T17:36:57.848Z,99693.53
2022-09-13T17:39:29.614Z,99719.53
2022-09-13T17:41:56.401Z,99751.81
2022-09-13T17:44:25.282Z,99712.72
2022-09-13T17:46:56.959Z,99681.56
2022-09-13T17:49:24.114Z,99812.19
2022-09-13T17:51:50.819Z,99691.66
2022-09-13T17:54:19.711Z,99805.59
2022-09-13T17:56:46.811Z,99809.13
2022-09-13T17:59:15.586Z,99831.16
2022-09-13T18:01:48.502Z,99806.88
2022-09-13T18:04:22.237Z,99805.56
2022-09-13T18:06:51.068Z,99804.66
2022-09-13T18:09:20.056Z,99611.75
2022-09-13T18:11:46.715Z,99813.50
2022-09-13T18:14:20.309Z,99785.06
2022-09-13T18:16:55.569Z,99747.44
2022-09-13T18:19:44.294Z,99644.03
2022-09-13T18:22:14.860Z,99731.91
2022-09-13T18:24:44.294Z,99823.25
2022-09-13T18:27:10.967Z,99831.16
2022-09-13T18:29:40.156Z,99840.91
2022-09-13T18:32:07.030Z,99618.25
2022-09-13T18:34:33.732Z,99837.50
2022-09-13T18:37:03.075Z,99839.28
2022-09-13T18:39:29.856Z,99662.88
2022-09-13T18:42:01.075Z,99813.28
2022-09-13T18:44:30.642Z,99752.44
2022-09-13T18:46:58.166Z,99710.91
2022-09-13T18:49:24.871Z,99505.84
2022-09-13T18:51:51.618Z,99685.00
2022-09-13T18:54:18.704Z,99851.22
2022-09-13T18:56:48.607Z,99859.06
2022-09-13T18:59:15.554Z,99826.88
2022-09-13T19:01:45.432Z,99836.38
2022-09-13T19:04:20.004Z,99668.47
2022-09-13T19:06:52.076Z,99845.16
2022-09-13T19:09:20.963Z,99704.22
2022-09-13T19:11:51.720Z,99754.72
2022-09-13T19:14:22.932Z,99688.78
2022-09-13T19:16:53.595Z,99687.88
2022-09-13T19:19:20.841Z,99842.75
2022-09-13T19:21:49.873Z,99693.91
2022-09-13T19:24:19.476Z,99760.22
2022-09-13T19:26:51.189Z,99660.13
2022-09-13T19:29:21.870Z,99783.13
2022-09-13T19:31:49.456Z,99827.09
2022-09-13T19:34:18.165Z,99746.31
2022-09-13T19:36:45.533Z,99748.97
2022-09-13T19:39:12.679Z,99669.88
2022-09-13T19:41:40.251Z,99735.06
2022-09-13T19:44:13.750Z,99828.97
2022-09-13T19:46:43.896Z,99821.91
2022-09-13T19:49:15.865Z,99636.78
2022-09-13T19:51:49.984Z,99813.97
2022-09-13T19:54:21.370Z,99749.56
2022-09-13T19:56:48.479Z,99669.50
2022-09-13T19:59:17.137Z,99711.31
2022-09-13T20:01:47.276Z,99646.88
2022-09-13T20:04:16.821Z,99650.28
2022-09-13T20:06:45.864Z,99836.66
2022-09-13T20:09:13.925Z,99842.72
2022-09-13T20:11:45.342Z,99709.56
2022-09-13T20:14:13.637Z,99831.38
2022-09-13T20:16:41.333Z,99632.22
2022-09-13T20:19:29.600Z,99750.56
2022-09-13T20:21:55.529Z,99639.09
2022-09-13T20:24:22.247Z,99591.97
2022-09-13T20:26:52.270Z,99654.53
2022-09-13T20:29:21.516Z,99692.03
2022-09-13T20:31:48.177Z,99740.75
2022-09-13T20:34:15.263Z,99794.75
2022-09-13T20:36:44.308Z,99823.25
2022-09-13T20:39:15.135Z,99816.28
2022-09-13T20:41:43.309Z,99681.41
2022-09-13T20:44:10.821Z,99628.28
2022-09-13T20:46:40.579Z,99801.28
2022-09-13T20:49:09.169Z,99703.00
2022-09-13T20:51:38.685Z,99696.19
2022-09-13T20:54:07.771Z,99817.09
2022-09-13T20:56:36.821Z,99821.53
2022-09-13T20:59:06.746Z,99833.03
2022-09-13T21:01:33.923Z,99792.06
2022-09-13T21:04:01.306Z,99819.16
2022-09-13T21:06:29.721Z,99820.06
2022-09-13T21:09:01.886Z,99573.88
2022-09-13T21:11:35.129Z,99808.56
2022-09-13T21:14:07.253Z,99805.88
2022-09-13T21:16:39.803Z,99802.63
2022-09-13T21:19:07.463Z,99802.97
2022-09-13T21:21:40.305Z,99800.38
2022-09-13T21:24:11.001Z,99603.84
2022-09-13T21:26:42.642Z,99787.53
2022-09-13T21:29:12.871Z,99795.50
2022-09-13T21:31:40.246Z,99638.81
2022-09-13T21:34:17.821Z,99797.25
2022-09-13T21:36:45.603Z,99792.03
2022-09-13T21:39:13.373Z,99790.31
2022-09-13T21:41:43.044Z,99689.34
2022-09-13T21:44:12.224Z,99572.56
2022-09-13T21:46:39.984Z,99755.22
2022-09-13T21:49:10.255Z,99639.66
2022-09-13T21:51:41.893Z,99792.72
2022-09-13T21:54:11.158Z,99791.00
2022-09-13T21:56:42.397Z,99543.84
2022-09-13T21:59:16.861Z,99713.63
2022-09-13T22:01:46.973Z,99648.41
2022-09-13T22:04:17.410Z,99791.88
2022-09-13T22:06:47.939Z,99793.56
2022-09-13T22:09:15.371Z,99743.03
2022-09-13T22:11:49.523Z,99791.78
2022-09-13T22:14:21.623Z,99631.69
2022-09-13T22:16:48.505Z,99787.41
2022-09-13T22:19:26.552Z,99748.31
2022-09-13T22:21:59.227Z,99785.88
2022-09-13T22:24:31.805Z,99748.72
2022-09-13T22:26:59.165Z,99721.50
2022-09-13T22:29:28.809Z,99751.88
2022-09-13T22:31:58.484Z,99699.72
2022-09-13T22:34:26.163Z,99565.78
2022-09-13T22:36:56.014Z,99720.75
2022-09-13T22:39:25.778Z,99408.47
2022-09-13T22:41:52.644Z,99697.41
2022-09-13T22:44:24.056Z,99593.03
2022-09-13T22:46:51.182Z,99761.84
2022-09-13T22:49:19.397Z,99591.41
2022-09-13T22:51:47.622Z,99651.47
2022-09-13T22:54:15.442Z,99738.38
2022-09-13T22:56:42.560Z,99753.19
2022-09-13T22:59:14.725Z,99759.41
2022-09-13T23:01:41.683Z,99527.13
2022-09-13T23:04:10.726Z,99528.00
2022-09-13T23:06:37.549Z,99734.31
2022-09-13T23:09:10.662Z,99761.34
2022-09-13T23:11:39.132Z,99765.75
2022-09-13T23:14:11.444Z,99764.94
2022-09-13T23:16:44.122Z,99770.25
2022-09-13T23:19:12.982Z,99594.50
2022-09-13T23:21:40.317Z,99564.00
2022-09-13T23:24:08.251Z,99772.97
2022-09-13T23:26:35.222Z,99773.03
2022-09-13T23:29:04.835Z,99665.97
2022-09-13T23:31:34.755Z,99768.69
2022-09-13T23:34:03.511Z,99611.06
2022-09-13T23:36:35.842Z,99619.75
2022-09-13T23:39:07.971Z,99547.59
2022-09-13T23:41:35.157Z,99689.53
2022-09-13T23:44:02.596Z,99757.53
2022-09-13T23:46:29.577Z,99700.94
2022-09-13T23:48:56.315Z,99673.97
2022-09-13T23:51:24.352Z,99715.00
2022-09-13T23:53:52.509Z,99616.63
2022-09-13T23:56:19.480Z,99402.50
2022-09-13T23:58:47.189Z,99535.66
